Time;durP1;ratioP1;P1;durP2;ratioP2;P2;SDS_P1;SDS_P2;PMS_P1;PMS_P2;Temp;Humidity;BMP_temperature;BMP_pressure;BME280_temperature;BME280_humidity;BME280_pressure;Samples;Min_cycle;Max_cycle;Signal;HPM_P1;HPM_P2
2021/05/18 00:01:03;;;;;;;21.70;10.63;;;;;;;14.89;56.50;100918.97;4988304;28;113086;-66
2021/05/18 00:03:30;;;;;;;19.40;10.55;;;;;;;14.89;56.59;100912.78;4987321;28;124223;-66
2021/05/18 00:05:58;;;;;;;20.85;10.35;;;;;;;14.89;56.53;100918.97;4987161;28;123958;-66
2021/05/18 00:08:27;;;;;;;24.02;10.30;;;;;;;14.89;56.50;100913.66;4988454;28;115621;-65
2021/05/18 00:13:53;;;;;;;19.43;10.13;;;;;;;14.90;56.47;100920.72;4985142;28;124599;-65
2021/05/18 00:16:20;;;;;;;25.70;11.60;;;;;;;14.90;56.61;100918.03;4987590;28;124739;-66
2021/05/18 00:18:48;;;;;;;19.25;10.10;;;;;;;14.90;56.68;100912.69;4987542;28;113200;-66
2021/05/18 00:21:16;;;;;;;19.55;9.55;;;;;;;14.92;56.62;100916.13;4985128;28;113745;-65
2021/05/18 00:23:46;;;;;;;20.58;10.55;;;;;;;14.93;56.60;100919.66;4988997;28;124048;-66
2021/05/18 00:26:13;;;;;;;18.98;10.85;;;;;;;14.92;56.65;100918.78;4989456;28;123983;-66
2021/05/18 00:28:40;;;;;;;22.63;10.45;;;;;;;14.93;56.74;100915.16;4988791;28;114438;-66
2021/05/18 00:31:08;;;;;;;21.73;10.60;;;;;;;14.94;56.61;100922.22;4991529;28;113885;-66
2021/05/18 00:33:35;;;;;;;24.23;10.65;;;;;;;14.95;56.63;100917.75;4990942;28;123436;-65
2021/05/18 00:36:03;;;;;;;21.42;10.88;;;;;;;14.94;56.59;100922.22;4992433;28;126857;-66
2021/05/18 00:38:31;;;;;;;21.77;10.80;;;;;;;14.94;56.60;100916.88;4990953;28;114189;-65
2021/05/18 00:40:58;;;;;;;21.10;10.55;;;;;;;14.94;56.82;100932.88;4988343;28;114073;-66
2021/05/18 00:43:25;;;;;;;23.50;10.40;;;;;;;14.93;56.70;100920.50;4990383;28;124886;-66
2021/05/18 00:45:53;;;;;;;21.80;10.45;;;;;;;14.94;56.68;100921.38;4989777;28;123935;-65
2021/05/18 00:48:21;;;;;;;22.10;10.57;;;;;;;14.95;56.73;100923.91;4987846;28;114361;-65
2021/05/18 00:51:12;;;;;;;18.77;10.15;;;;;;;14.94;56.69;100927.56;4991160;28;112917;-65
2021/05/18 00:53:40;;;;;;;22.55;10.48;;;;;;;14.93;56.67;100925.81;4989401;28;123303;-65
2021/05/18 00:56:32;;;;;;;18.50;10.25;;;;;;;14.93;56.61;100925.81;4989707;28;126414;-65
2021/05/18 00:59:04;;;;;;;18.25;10.15;;;;;;;14.92;56.81;100924.13;4990023;28;114126;-65
2021/05/18 01:01:33;;;;;;;19.25;10.07;;;;;;;14.91;56.78;100933.06;4990657;28;115886;-66
2021/05/18 01:04:00;;;;;;;19.70;9.10;;;;;;;14.90;56.69;100928.69;4989359;28;124362;-66
2021/05/18 01:06:30;;;;;;;21.08;10.20;;;;;;;14.89;56.72;100928.78;4990886;28;125037;-66
2021/05/18 01:09:00;;;;;;;18.35;9.85;;;;;;;14.87;56.87;100930.69;4987320;28;114231;-66
2021/05/18 01:11:30;;;;;;;19.60;9.50;;;;;;;14.84;56.81;100936.22;4986081;28;114313;-66
2021/05/18 01:14:02;;;;;;;18.70;9.65;;;;;;;14.82;56.50;100933.63;4988739;28;124261;-66
2021/05/18 01:16:32;;;;;;;18.08;10.18;;;;;;;14.79;56.86;100933.84;4989530;28;124308;-66
2021/05/18 01:19:00;;;;;;;19.02;9.65;;;;;;;14.77;56.94;100935.75;4989802;28;114391;-66
2021/05/18 01:21:28;;;;;;;19.20;9.68;;;;;;;14.76;57.19;100934.88;4992127;28;114273;-65
2021/05/18 01:23:55;;;;;;;23.60;10.07;;;;;;;14.76;57.10;100936.69;4988618;28;124339;-65
2021/05/18 01:26:24;;;;;;;19.80;9.93;;;;;;;14.76;57.13;100939.34;4989991;28;124223;-65
2021/05/18 01:28:52;;;;;;;20.42;10.35;;;;;;;14.76;57.09;100931.34;4988999;28;114549;-66
2021/05/18 01:31:23;;;;;;;17.98;10.43;;;;;;;14.77;57.18;100935.75;4991001;28;114510;-66
2021/05/18 01:33:52;;;;;;;17.45;10.02;;;;;;;14.77;57.30;100941.09;4988775;28;124364;-66
2021/05/18 01:36:23;;;;;;;18.63;10.48;;;;;;;14.77;57.22;100941.09;4989737;28;124260;-65
2021/05/18 01:39:01;;;;;;;19.48;10.43;;;;;;;14.77;57.11;100935.75;4989519;28;113423;-66
2021/05/18 01:44:16;;;;;;;20.08;10.95;;;;;;;14.74;57.22;100935.91;4988722;28;123331;-65
2021/05/18 01:46:45;;;;;;;20.20;11.60;;;;;;;14.74;57.38;100941.25;4988429;28;123276;-66
2021/05/18 01:49:17;;;;;;;19.65;11.80;;;;;;;14.74;57.47;100947.44;4988788;28;114344;-66
2021/05/18 01:51:54;;;;;;;22.23;12.18;;;;;;;14.72;57.52;100937.81;4985649;28;117453;-66
2021/05/18 01:54:27;;;;;;;18.23;12.13;;;;;;;14.71;57.63;100946.75;4990083;28;125075;-66
2021/05/18 01:59:46;;;;;;;22.60;12.85;;;;;;;14.70;57.83;100950.41;4990986;28;113508;-66
2021/05/18 02:02:20;;;;;;;20.45;13.70;;;;;;;14.69;57.94;100948.66;4990278;28;112368;-66
2021/05/18 02:04:54;;;;;;;21.85;14.30;;;;;;;14.67;58.03;100950.56;5004911;28;125659;-66
2021/05/18 02:07:31;;;;;;;22.48;13.55;;;;;;;14.67;58.23;100950.56;4986507;28;126397;-66
2021/05/18 02:09:59;;;;;;;22.45;13.90;;;;;;;14.67;58.23;100950.56;4988705;28;115002;-65
2021/05/18 02:12:30;;;;;;;23.23;13.50;;;;;;;14.66;58.33;100946.22;4989184;28;114290;-66
2021/05/18 02:15:04;;;;;;;22.23;14.25;;;;;;;14.66;58.54;100943.53;4988843;28;123693;-66
2021/05/18 02:17:37;;;;;;;21.40;13.90;;;;;;;14.66;58.48;100948.88;5003935;28;123534;-66
2021/05/18 02:25:20;;;;;;;20.77;15.35;;;;;;;14.63;58.78;100954.38;4989413;28;122987;-69
2021/05/18 02:28:01;;;;;;;25.27;15.25;;;;;;;14.62;58.81;100952.66;4988650;28;122962;-67
2021/05/18 02:30:31;;;;;;;22.70;15.30;;;;;;;14.58;58.89;100950.19;4988301;28;114583;-67
2021/05/18 02:33:01;;;;;;;22.42;15.65;;;;;;;14.55;59.11;100955.66;4989628;28;113000;-67
2021/05/18 02:35:34;;;;;;;22.83;15.45;;;;;;;14.53;59.12;100954.91;4988820;28;124173;-67
2021/05/18 02:38:02;;;;;;;22.77;15.40;;;;;;;14.52;59.23;100957.66;4988440;28;123435;-67
2021/05/18 02:40:31;;;;;;;23.58;16.25;;;;;;;14.52;59.47;100958.53;4989731;28;115949;-68
2021/05/18 02:42:58;;;;;;;21.95;16.02;;;;;;;14.53;59.36;100960.22;4990366;28;115230;-67
2021/05/18 02:45:38;;;;;;;24.45;16.92;;;;;;;14.52;59.46;100961.19;4986705;28;124778;-68
2021/05/18 02:50:54;;;;;;;23.77;17.02;;;;;;;14.51;59.69;100955.94;5000964;28;113024;-66
2021/05/18 02:53:42;;;;;;;24.42;17.13;;;;;;;14.50;59.73;100955.06;4989159;28;115578;-67
2021/05/18 02:56:23;;;;;;;24.73;17.20;;;;;;;14.48;59.91;100959.63;4986506;28;125568;-68
2021/05/18 03:01:26;;;;;;;26.52;17.45;;;;;;;14.48;59.99;100956.97;4987519;28;115140;-67
2021/05/18 03:03:53;;;;;;;27.52;18.27;;;;;;;14.49;60.05;100956.03;4988563;28;114273;-67
2021/05/18 03:06:21;;;;;;;28.42;19.13;;;;;;;14.50;60.30;100955.06;4987393;28;124257;-68
2021/05/18 03:08:48;;;;;;;26.15;19.00;;;;;;;14.51;60.23;100956.78;4988246;28;124045;-68
2021/05/18 03:11:16;;;;;;;28.70;18.95;;;;;;;14.49;60.30;100953.38;4989078;28;115004;-68
2021/05/18 03:13:43;;;;;;;28.25;19.67;;;;;;;14.49;60.29;100958.69;4990036;28;114171;-69
2021/05/18 03:16:10;;;;;;;26.40;19.80;;;;;;;14.51;60.58;100962.13;4988738;28;123713;-68
2021/05/18 03:18:37;;;;;;;28.02;19.60;;;;;;;14.51;60.42;100951.47;4988340;28;123006;-69
2021/05/18 03:21:05;;;;;;;26.58;20.10;;;;;;;14.51;60.42;100959.47;4988358;28;114150;-68
2021/05/18 03:23:32;;;;;;;25.33;19.75;;;;;;;14.52;60.67;100958.53;4988895;28;114293;-68
2021/05/18 03:26:00;;;;;;;27.15;19.85;;;;;;;14.54;60.71;100958.41;4988199;28;124324;-69
2021/05/18 03:28:27;;;;;;;25.33;19.90;;;;;;;14.55;60.73;100968.97;4986717;28;123816;-68
2021/05/18 03:36:12;;;;;;;31.92;21.70;;;;;;;14.57;60.55;100967.13;4988257;28;124141;-68
2021/05/18 03:38:43;;;;;;;28.88;21.70;;;;;;;14.58;60.72;100968.84;4987960;28;123983;-67
2021/05/18 03:41:24;;;;;;;25.42;20.40;;;;;;;14.58;60.76;100963.50;4985735;28;115088;-69
2021/05/18 03:54:39;;;;;;;30.70;22.40;;;;;;;14.64;60.59;100972.09;4989918;28;113088;-70
2021/05/18 04:02:50;;;;;;;33.97;24.60;;;;;;;14.58;60.94;100976.84;4990481;28;114781;-69
2021/05/18 04:19:02;;;;;;;38.83;26.13;;;;;;;14.60;61.01;100982.94;4989913;28;124083;-68
2021/05/18 04:54:07;;;;;;;35.88;24.95;;;;;;;14.66;61.46;101007.53;4974138;28;124356;-67
2021/05/18 04:59:26;;;;;;;36.97;25.65;;;;;;;14.67;61.52;101019.88;4989196;28;113907;-69
2021/05/18 05:07:27;;;;;;;37.95;25.90;;;;;;;14.70;61.70;101015.22;4965988;28;114518;-68
2021/05/18 05:09:54;;;;;;;38.75;27.77;;;;;;;14.71;61.90;101016.06;4990893;28;113296;-68
2021/05/18 05:14:48;;;;;;;43.63;28.10;;;;;;;14.73;61.93;101015.06;4990455;28;123737;-67
2021/05/18 05:17:16;;;;;;;41.38;30.20;;;;;;;14.75;61.95;101022.97;4989768;28;115126;-68
2021/05/18 05:19:43;;;;;;;42.00;28.48;;;;;;;14.77;61.92;101031.72;4991321;28;114408;-68
2021/05/18 05:22:13;;;;;;;41.05;29.13;;;;;;;14.77;61.83;101026.41;4989467;28;124502;-67
2021/05/18 05:24:42;;;;;;;42.83;29.95;;;;;;;14.77;61.94;101026.41;4991276;28;124078;-68
2021/05/18 05:27:09;;;;;;;41.47;29.58;;;;;;;14.77;61.94;101023.72;4990730;28;114635;-68
2021/05/18 05:29:56;;;;;;;42.20;29.88;;;;;;;14.80;62.01;101026.19;4990077;28;114162;-68
2021/05/18 05:32:23;;;;;;;43.05;31.48;;;;;;;14.81;62.11;101022.59;5007864;22;123957;-68
2021/05/18 05:34:50;;;;;;;46.72;30.55;;;;;;;14.83;61.97;101026.03;4987794;28;124748;-68
2021/05/18 05:37:17;;;;;;;43.63;30.55;;;;;;;14.83;61.90;101026.03;4988681;28;114309;-68
2021/05/18 05:39:44;;;;;;;42.83;29.67;;;;;;;14.84;61.54;101033.06;4987828;28;113696;-68
2021/05/18 05:42:12;;;;;;;46.90;30.88;;;;;;;14.83;61.85;101026.03;4985006;28;125418;-67
2021/05/18 05:44:39;;;;;;;44.95;31.70;;;;;;;14.85;61.88;101029.44;5002698;28;124692;-67
2021/05/18 05:47:06;;;;;;;44.55;33.03;;;;;;;14.88;62.06;101034.63;5000505;28;113193;-67
2021/05/18 05:49:33;;;;;;;46.03;31.38;;;;;;;14.92;62.08;101028.13;5003125;28;115234;-66
2021/05/18 05:52:00;;;;;;;43.28;31.73;;;;;;;15.01;62.31;101033.84;5002713;28;123901;-67
2021/05/18 05:54:27;;;;;;;44.92;29.90;;;;;;;15.07;62.00;101039.69;4990363;28;127744;-67
2021/05/18 05:56:54;;;;;;;51.53;31.42;;;;;;;15.11;61.95;101030.53;4990916;28;114847;-67
2021/05/18 05:59:22;;;;;;;46.65;31.70;;;;;;;15.16;62.04;101038.25;4989134;28;114400;-67
2021/05/18 06:01:49;;;;;;;43.20;30.80;;;;;;;15.22;62.05;101027.22;4985565;28;124349;-67
2021/05/18 06:04:16;;;;;;;41.88;30.63;;;;;;;15.28;62.11;101042.00;4989899;28;125136;-68
2021/05/18 06:06:43;;;;;;;45.47;32.33;;;;;;;15.32;61.89;101039.03;4989512;28;115880;-67
2021/05/18 06:09:10;;;;;;;44.30;32.08;;;;;;;15.41;62.10;101042.06;5005607;28;114828;-67
2021/05/18 06:11:50;;;;;;;44.05;29.85;;;;;;;15.47;62.01;101047.06;4999948;28;122987;-68
2021/05/18 06:42:06;;;;;;;39.13;26.55;;;;;;;16.00;60.75;101061.50;4988653;28;113005;-66
2021/05/18 06:47:32;;;;;;;38.22;27.50;;;;;;;16.04;60.48;101067.53;4999552;28;123071;-67
2021/05/18 06:50:11;;;;;;;40.97;28.60;;;;;;;16.06;60.71;101082.47;4989690;28;113833;-67
2021/05/18 06:52:38;;;;;;;37.70;27.10;;;;;;;16.07;60.31;101073.53;4985026;28;114318;-67
2021/05/18 06:55:15;;;;;;;39.80;29.27;;;;;;;16.06;60.31;101079.81;4978748;28;124668;-67
2021/05/18 06:57:49;;;;;;;38.53;27.83;;;;;;;16.06;60.30;101077.13;4984647;28;123260;-67
2021/05/18 07:00:21;;;;;;;38.50;29.25;;;;;;;16.07;60.05;101084.22;4986755;28;115357;-67
2021/05/18 07:02:51;;;;;;;39.20;28.98;;;;;;;16.07;60.15;101084.22;4987043;28;115688;-67
2021/05/18 07:07:55;;;;;;;37.15;27.27;;;;;;;16.03;59.63;101101.41;4988484;28;124119;-67
2021/05/18 07:10:22;;;;;;;39.47;27.77;;;;;;;15.98;59.65;101098.16;4986373;28;114628;-66
2021/05/18 07:12:49;;;;;;;37.10;27.08;;;;;;;15.95;59.75;101106.34;4972538;28;114720;-68
2021/05/18 07:15:17;;;;;;;39.17;26.98;;;;;;;15.93;59.74;101108.28;4983857;28;124193;-67
2021/05/18 07:17:44;;;;;;;38.55;27.52;;;;;;;15.92;59.82;101111.91;4985426;28;123367;-68
2021/05/18 07:20:16;;;;;;;39.03;27.13;;;;;;;15.92;60.04;101111.91;4979575;28;113424;-67
2021/05/18 07:22:43;;;;;;;40.58;29.73;;;;;;;15.98;60.55;101111.50;4971293;28;115155;-68
2021/05/18 07:25:11;;;;;;;44.03;29.25;;;;;;;16.09;60.54;101109.00;4986318;28;124381;-67
2021/05/18 07:27:38;;;;;;;36.63;27.38;;;;;;;16.23;60.65;101110.78;4992806;28;125190;-68
2021/05/18 07:30:06;;;;;;;33.65;24.73;;;;;;;16.38;60.79;101108.94;4987733;28;114407;-67
2021/05/18 07:32:33;;;;;;;32.17;23.73;;;;;;;16.50;60.20;101123.31;4991223;28;113808;-68
2021/05/18 07:35:00;;;;;;;34.05;23.80;;;;;;;16.53;59.78;101123.97;4990642;28;124173;-67
2021/05/18 07:37:27;;;;;;;34.47;24.00;;;;;;;16.55;59.42;101121.19;4983932;28;123758;-67
2021/05/18 07:39:54;;;;;;;35.45;24.40;;;;;;;16.53;59.57;101123.97;4992443;28;114778;-68
2021/05/18 07:42:21;;;;;;;32.72;22.83;;;;;;;16.50;59.44;101124.19;4992702;28;114176;-68
2021/05/18 07:44:49;;;;;;;28.25;22.48;;;;;;;16.49;59.51;101126.97;4989535;28;123315;-70
2021/05/18 07:47:17;;;;;;;28.10;21.40;;;;;;;16.49;59.22;101127.81;5002133;28;123602;-68
2021/05/18 07:49:48;;;;;;;27.10;20.90;;;;;;;16.46;58.71;101132.50;4992302;28;115332;-68
2021/05/18 08:00:40;;;;;;;29.92;21.92;;;;;;;16.69;59.72;101136.34;4990712;28;113989;-68
2021/05/18 08:05:53;;;;;;;25.73;20.58;;;;;;;16.94;59.37;101127.56;4985377;28;124219;-67
2021/05/18 08:08:20;;;;;;;27.58;20.95;;;;;;;17.03;59.25;101136.81;4982192;28;123307;-69
2021/05/18 08:10:50;;;;;;;22.65;19.50;;;;;;;17.08;58.60;101140.00;4990027;28;114259;-67
2021/05/18 08:13:23;;;;;;;24.48;19.05;;;;;;;17.08;57.93;101140.00;4990805;28;113990;-68
2021/05/18 08:16:43;;;;;;;26.90;19.67;;;;;;;17.09;57.81;101139.06;4987424;28;124826;-68
2021/05/18 08:49:30;;;;;;;14.02;9.75;;;;;;;18.19;55.46;101137.66;4989742;28;125254;-68
2021/05/18 10:17:08;;;;;;;6.22;4.00;;;;;;;20.45;46.36;101116.72;4969314;28;113363;-68
2021/05/18 10:25:45;;;;;;;6.72;4.60;;;;;;;20.60;46.42;101124.41;4975288;28;114108;-69
2021/05/18 10:38:50;;;;;;;6.80;4.90;;;;;;;20.78;45.01;101130.09;4977361;28;115142;-69
2021/05/18 10:41:23;;;;;;;7.53;5.32;;;;;;;20.66;45.19;101136.50;4988843;28;123728;-69
2021/05/18 10:44:08;;;;;;;7.80;5.50;;;;;;;20.46;45.69;101139.97;5003465;28;123491;-69
2021/05/18 10:46:53;;;;;;;8.52;5.38;;;;;;;20.26;46.10;101150.50;4990720;28;114764;-69
2021/05/18 10:49:40;;;;;;;7.90;5.30;;;;;;;20.06;46.42;101153.94;4987065;28;115309;-69
2021/05/18 10:52:09;;;;;;;6.28;5.28;;;;;;;19.92;46.72;101150.53;4987919;28;123376;-69
2021/05/18 10:54:40;;;;;;;6.50;4.90;;;;;;;19.86;47.02;101159.09;4988048;28;125596;-69
2021/05/18 10:57:18;;;;;;;6.22;5.10;;;;;;;19.84;47.42;101156.53;4998619;28;114297;-69
2021/05/18 11:00:03;;;;;;;6.28;5.03;;;;;;;19.88;47.79;101157.13;5000531;28;113161;-68
2021/05/18 11:02:38;;;;;;;6.75;4.70;;;;;;;19.97;47.25;101156.41;4989844;28;123467;-69
2021/05/18 11:05:06;;;;;;;;;;;;;;;20.02;47.83;101154.22;4993272;28;122814;-69
2021/05/18 11:07:40;;;;;;;6.72;5.45;;;;;;;20.08;46.73;101142.13;4970760;28;114174;-67
2021/05/18 11:10:14;;;;;;;8.70;6.05;;;;;;;20.13;46.96;101149.78;4985521;28;114120;-67
2021/05/18 11:12:48;;;;;;;8.13;6.45;;;;;;;20.14;47.00;101151.53;4987237;28;124293;-67
2021/05/18 11:15:17;;;;;;;9.30;6.82;;;;;;;20.16;46.72;101154.94;4970503;28;123395;-68
2021/05/18 11:17:47;;;;;;;8.23;6.68;;;;;;;20.14;47.05;101152.38;4988475;28;114770;-68
2021/05/18 11:23:29;;;;;;;8.27;6.40;;;;;;;19.97;47.23;101161.78;5001576;28;123233;-67
2021/05/18 11:26:02;;;;;;;7.57;6.18;;;;;;;19.80;47.24;101175.72;4987260;28;124624;-67
2021/05/18 11:28:40;;;;;;;7.05;6.07;;;;;;;19.61;48.14;101181.66;4986068;28;115191;-68
2021/05/18 11:31:16;;;;;;;6.90;6.05;;;;;;;19.48;47.95;101176.38;4990177;28;114447;-67
2021/05/18 11:33:48;;;;;;;8.43;5.88;;;;;;;19.35;48.20;101170.22;5005027;22;123745;-62
2021/05/18 11:36:17;;;;;;;8.52;6.63;;;;;;;19.22;48.96;101165.78;4989294;28;122991;-62
2021/05/18 11:38:56;;;;;;;11.23;7.63;;;;;;;19.17;50.56;101170.66;4987395;28;114483;-64
2021/05/18 11:41:34;;;;;;;9.23;8.10;;;;;;;19.17;51.38;101167.97;4988512;28;114471;-64
2021/05/18 11:44:03;;;;;;;9.57;7.32;;;;;;;19.21;51.56;101164.09;4987818;28;123119;-64
2021/05/18 11:46:33;;;;;;;7.13;6.40;;;;;;;19.30;51.32;101167.88;4989690;28;123718;-64
2021/05/18 11:49:10;;;;;;;7.50;6.05;;;;;;;19.39;50.68;101166.34;4989418;28;114906;-64
2021/05/18 11:51:47;;;;;;;8.45;6.93;;;;;;;19.51;50.97;101151.94;4990826;28;113282;-65
2021/05/18 11:54:37;;;;;;;7.70;6.85;;;;;;;19.67;50.77;101153.44;4973687;28;124644;-64
2021/05/18 11:57:05;;;;;;;7.68;6.90;;;;;;;19.82;50.72;101152.25;4989600;28;123995;-64
2021/05/18 11:59:35;;;;;;;8.75;6.75;;;;;;;20.00;51.06;101150.81;4988505;28;114821;-64
2021/05/18 12:02:06;;;;;;;8.07;6.35;;;;;;;20.16;49.96;101149.56;4987646;28;114853;-64
2021/05/18 12:04:38;;;;;;;8.45;6.60;;;;;;;20.24;49.71;101149.78;4989155;28;123034;-64
2021/05/18 12:07:08;;;;;;;9.65;6.88;;;;;;;20.29;49.95;101144.03;4989370;28;124598;-64
2021/05/18 12:09:38;;;;;;;10.45;6.72;;;;;;;20.34;49.46;101155.28;4988433;28;114976;-64
2021/05/18 12:12:14;;;;;;;7.55;6.53;;;;;;;20.34;48.91;101148.06;4979832;28;114722;-64
2021/05/18 12:14:45;;;;;;;8.13;6.18;;;;;;;20.33;48.27;101149.03;4990877;28;124030;-64
2021/05/18 12:17:13;;;;;;;8.80;6.70;;;;;;;20.28;47.87;101148.56;4988010;28;123778;-65
2021/05/18 12:19:43;;;;;;;7.78;6.97;;;;;;;20.17;48.01;101151.25;4989821;28;115291;-65
2021/05/18 12:22:10;;;;;;;8.07;7.28;;;;;;;20.11;48.34;101151.75;4992166;28;113883;-65
2021/05/18 12:24:39;;;;;;;7.72;7.03;;;;;;;20.10;49.23;101155.41;4991128;28;124825;-65
2021/05/18 12:27:07;;;;;;;9.63;6.88;;;;;;;20.11;48.98;101149.06;4978840;28;122800;-65
2021/05/18 12:29:37;;;;;;;7.82;6.40;;;;;;;20.10;48.17;101158.09;4991529;28;113153;-65
2021/05/18 12:32:21;;;;;;;7.85;6.13;;;;;;;20.05;47.46;101146.88;4984951;28;114585;-64
2021/05/18 12:35:15;;;;;;;9.50;6.00;;;;;;;19.94;47.24;101145.88;4991227;28;124541;-65
2021/05/18 12:37:45;;;;;;;7.72;5.93;;;;;;;19.92;47.21;101153.22;4979160;28;124268;-65
2021/05/18 12:40:28;;;;;;;7.80;6.20;;;;;;;19.89;47.39;101158.88;4990750;28;114279;-65
2021/05/18 12:43:13;;;;;;;6.93;5.90;;;;;;;19.92;46.87;101155.06;4988729;28;113782;-65
2021/05/18 12:45:41;;;;;;;7.88;4.93;;;;;;;20.00;46.57;101161.56;4990443;28;125001;-65
2021/05/18 12:48:12;;;;;;;7.88;5.88;;;;;;;20.09;46.36;101159.09;4986884;28;124112;-64
2021/05/18 12:50:47;;;;;;;7.03;5.00;;;;;;;20.18;45.83;101158.34;4990522;28;114670;-63
2021/05/18 12:53:21;;;;;;;6.22;4.57;;;;;;;20.30;45.18;101151.97;4992580;28;114577;-63
2021/05/18 12:55:49;;;;;;;6.43;5.78;;;;;;;20.39;46.31;101156.59;4979841;28;124006;-65
2021/05/18 12:58:31;;;;;;;7.00;5.47;;;;;;;20.52;46.27;101147.53;4992942;28;124251;-65
2021/05/18 13:01:05;;;;;;;7.47;4.75;;;;;;;20.67;45.09;101154.38;4989093;28;114782;-65
2021/05/18 13:03:33;;;;;;;5.07;4.55;;;;;;;20.80;45.69;101160.44;4991157;28;114099;-65
2021/05/18 13:06:01;;;;;;;4.03;3.47;;;;;;;20.96;43.83;101159.16;4976849;28;124392;-65
2021/05/18 13:08:40;;;;;;;3.72;3.20;;;;;;;21.06;43.27;101152.03;4990005;28;123932;-65
2021/05/18 13:11:17;;;;;;;4.43;3.70;;;;;;;21.18;43.07;101156.34;4992257;28;115470;-65
2021/05/18 13:13:49;;;;;;;4.57;3.63;;;;;;;21.29;42.40;101160.00;4990739;28;115444;-64
2021/05/18 13:16:19;;;;;;;4.57;3.90;;;;;;;21.40;42.64;101154.53;4991212;28;124337;-65
2021/05/18 13:19:01;;;;;;;4.70;3.60;;;;;;;21.52;42.42;101161.59;4988842;28;124697;-64
2021/05/18 13:21:35;;;;;;;3.83;3.40;;;;;;;21.66;41.70;101162.22;4993099;28;114078;-65
2021/05/18 13:26:35;;;;;;;6.15;3.83;;;;;;;21.81;40.84;101162.72;4991179;28;124310;-63
2021/05/18 13:29:18;;;;;;;3.50;3.20;;;;;;;21.85;40.78;101151.56;4989369;28;124002;-63
2021/05/18 13:31:48;;;;;;;5.72;4.03;;;;;;;21.95;41.40;101152.44;4990131;28;114267;-63
2021/05/18 13:34:27;;;;;;;7.18;4.50;;;;;;;22.07;41.15;101149.63;4992264;28;114245;-63
2021/05/18 13:36:55;;;;;;;6.18;4.30;;;;;;;22.11;41.72;101151.94;4991491;28;124078;-63
2021/05/18 13:39:24;;;;;;;5.47;4.68;;;;;;;22.15;41.03;101147.09;4985916;28;123963;-63
2021/05/18 13:41:51;;;;;;;7.25;4.95;;;;;;;22.14;41.09;101167.00;4992110;28;114277;-63
2021/05/18 13:44:19;;;;;;;7.03;4.32;;;;;;;22.10;40.51;101166.41;4973969;28;112798;-62
2021/05/18 13:46:47;;;;;;;5.93;4.25;;;;;;;22.06;40.63;101164.13;4991063;28;124818;-63
2021/05/18 13:49:15;;;;;;;6.80;4.15;;;;;;;22.00;39.77;101170.06;4975804;28;123836;-63
2021/05/18 13:51:43;;;;;;;4.97;3.72;;;;;;;21.96;39.79;101164.06;4990836;28;114403;-62
2021/05/18 13:54:30;;;;;;;4.90;3.95;;;;;;;21.95;40.46;101174.00;4990639;28;113819;-63
2021/05/18 13:56:58;;;;;;;5.50;4.50;;;;;;;21.93;39.90;101170.59;4991335;28;124043;-63
2021/05/18 13:59:26;;;;;;;6.53;4.35;;;;;;;21.85;39.82;101170.44;4989759;28;124429;-62
2021/05/18 14:01:53;;;;;;;5.95;4.43;;;;;;;21.72;39.32;101167.09;4991037;28;114425;-63
2021/05/18 14:04:20;;;;;;;5.93;4.00;;;;;;;21.53;39.10;101179.47;4989528;28;115203;-63
2021/05/18 14:07:43;;;;;;;4.95;3.97;;;;;;;21.30;39.29;101177.84;4990087;28;124185;-62
2021/05/18 14:10:13;;;;;;;5.40;3.97;;;;;;;21.08;39.52;101179.69;4976937;28;124424;-62
2021/05/18 14:12:40;;;;;;;6.32;4.40;;;;;;;20.94;39.88;101177.28;4990225;28;114314;-62
2021/05/18 14:15:08;;;;;;;5.80;4.20;;;;;;;20.88;40.28;101175.09;4991946;28;113564;-62
2021/05/18 14:17:35;;;;;;;5.63;4.30;;;;;;;20.85;40.17;101172.66;4991108;28;125000;-62
2021/05/18 14:20:05;;;;;;;5.40;4.10;;;;;;;20.78;40.64;101181.25;4989600;28;124216;-62
2021/05/18 14:22:32;;;;;;;6.45;4.45;;;;;;;20.73;40.23;101186.16;4989729;28;114170;-62
2021/05/18 14:25:06;;;;;;;6.28;4.07;;;;;;;20.61;40.24;101181.81;4990774;28;112613;-62
2021/05/18 14:27:37;;;;;;;6.40;4.07;;;;;;;20.48;40.56;101184.59;4987339;28;124235;-62
2021/05/18 14:30:08;;;;;;;5.63;3.95;;;;;;;20.47;40.83;101190.09;4991597;28;124278;-63
2021/05/18 14:32:36;;;;;;;5.38;4.20;;;;;;;20.50;40.83;101189.88;4992686;28;113251;-63
2021/05/18 14:35:05;;;;;;;5.38;3.72;;;;;;;20.56;40.89;101183.97;4989419;28;113193;-63
2021/05/18 14:37:33;;;;;;;5.95;3.50;;;;;;;20.61;40.73;101192.56;4987536;28;124820;-62
2021/05/18 14:40:11;;;;;;;5.07;3.83;;;;;;;20.58;40.74;101188.25;4986277;28;124078;-62
2021/05/18 14:43:02;;;;;;;4.43;3.53;;;;;;;20.53;40.68;101189.59;4987063;28;114867;-63
2021/05/18 14:45:35;;;;;;;6.03;4.15;;;;;;;20.48;41.03;101191.81;4989885;28;113514;-62
2021/05/18 14:53:43;;;;;;;6.13;4.05;;;;;;;20.33;41.20;101189.38;4991516;28;115311;-63
2021/05/18 14:56:10;;;;;;;7.10;4.30;;;;;;;20.36;41.43;101193.66;4987929;28;115287;-62
2021/05/18 14:58:37;;;;;;;5.88;3.70;;;;;;;20.37;41.18;101190.00;4989870;28;124210;-62
2021/05/18 15:01:05;;;;;;;6.60;3.72;;;;;;;20.31;40.50;101191.34;4989690;28;123056;-63
2021/05/18 15:03:34;;;;;;;5.28;4.00;;;;;;;20.27;41.19;101195.28;4991859;28;114378;-62
2021/05/18 15:06:01;;;;;;;5.75;3.47;;;;;;;20.25;40.86;101194.53;4989223;28;114327;-62
2021/05/18 15:08:29;;;;;;;4.47;3.67;;;;;;;20.26;40.83;101198.94;4988239;28;125527;-64
2021/05/18 15:11:04;;;;;;;5.07;3.53;;;;;;;20.19;40.70;101184.25;4982143;28;123941;-64
2021/05/18 15:13:33;;;;;;;4.72;3.20;;;;;;;20.12;40.71;101196.50;4985820;28;114304;-64
2021/05/18 15:16:01;;;;;;;6.18;3.65;;;;;;;20.02;40.21;101197.25;4985364;28;114014;-64
2021/05/18 15:18:33;;;;;;;5.38;3.17;;;;;;;19.92;40.31;101207.00;4982095;28;123970;-64
2021/05/18 15:21:02;;;;;;;3.70;3.17;;;;;;;19.80;40.49;101197.22;4988351;28;123804;-64
2021/05/18 15:23:29;;;;;;;6.97;3.67;;;;;;;19.72;41.00;101204.97;4987614;28;114276;-63
2021/05/18 15:25:58;;;;;;;6.10;3.60;;;;;;;19.67;40.65;101207.19;4989155;28;114468;-64
2021/05/18 15:28:25;;;;;;;6.85;3.55;;;;;;;19.61;40.86;101214.75;4990199;28;124016;-63
2021/05/18 15:30:55;;;;;;;5.00;3.70;;;;;;;19.56;41.03;101216.91;4979875;28;124028;-64
2021/05/18 15:33:22;;;;;;;5.25;3.35;;;;;;;19.55;41.43;101217.03;4986482;28;114483;-64
2021/05/18 15:35:49;;;;;;;5.45;3.47;;;;;;;19.54;41.55;101208.13;4990210;28;113156;-63
2021/05/18 15:38:17;;;;;;;6.22;3.50;;;;;;;19.55;41.39;101217.91;4987405;28;124057;-63
2021/05/18 15:40:45;;;;;;;6.53;3.10;;;;;;;19.57;41.16;101213.28;4988474;28;124046;-63
2021/05/18 15:43:13;;;;;;;4.50;3.13;;;;;;;19.59;41.20;101222.06;4987164;28;115953;-63
2021/05/18 15:45:40;;;;;;;6.00;2.80;;;;;;;19.60;40.86;101234.50;4987850;28;114966;-63
2021/05/18 15:48:09;;;;;;;5.63;3.00;;;;;;;19.60;40.31;101228.28;4987173;28;124117;-63
2021/05/18 15:50:36;;;;;;;5.00;2.65;;;;;;;19.59;40.35;101227.44;4986371;28;124265;-63
2021/05/18 15:53:03;;;;;;;4.38;2.83;;;;;;;19.56;40.29;101230.34;4990545;28;114717;-63
2021/05/18 15:55:31;;;;;;;5.28;2.33;;;;;;;19.60;40.80;101234.50;4993302;28;112887;-63
2021/05/18 15:57:58;;;;;;;5.03;2.75;;;;;;;19.72;40.93;101231.84;4992838;28;124655;-63
2021/05/18 16:00:25;;;;;;;4.25;2.42;;;;;;;19.84;41.14;101225.56;4992127;28;123983;-63
2021/05/18 16:02:52;;;;;;;3.97;2.03;;;;;;;19.97;40.53;101231.69;4990839;28;114757;-62
2021/05/18 16:05:19;;;;;;;4.07;1.77;;;;;;;20.06;39.47;101234.63;4991961;28;113260;-63
2021/05/18 16:07:53;;;;;;;3.78;1.80;;;;;;;20.14;39.32;101237.56;4990403;28;124767;-63
2021/05/18 16:10:21;;;;;;;;;;;;;;;20.21;40.49;101233.41;5008787;28;123326;-62
2021/05/18 16:12:49;;;;;;;4.95;2.05;;;;;;;20.33;39.49;101242.34;4987829;28;114497;-63